Time;durP1;ratioP1;P1;durP2;ratioP2;P2;SDS_P1;SDS_P2;PMS_P1;PMS_P2;Temp;Humidity;BMP_temperature;BMP_pressure;BME280_temperature;BME280_humidity;BME280_pressure;Samples;Min_cycle;Max_cycle;Signal;HPM_P1;HPM_P2
2022/06/11 00:00:15;;;;;;;3.63;2.57;;;18.30;62.20;;;;;;5046946;28;20183;-69
2022/06/11 00:02:41;;;;;;;2.30;2.10;;;18.30;60.60;;;;;;5081194;28;20210;-69
2022/06/11 00:05:07;;;;;;;2.40;2.10;;;18.40;59.70;;;;;;5046403;28;20236;-69
2022/06/11 00:07:34;;;;;;;2.17;2.00;;;18.40;61.00;;;;;;5054355;28;20183;-69
2022/06/11 00:10:00;;;;;;;4.43;2.47;;;18.40;61.30;;;;;;5062519;28;20178;-69
2022/06/11 00:12:26;;;;;;;2.50;2.30;;;18.40;60.80;;;;;;5053476;28;20202;-69
2022/06/11 00:14:53;;;;;;;2.63;2.40;;;18.40;59.30;;;;;;5051933;28;20167;-69
2022/06/11 00:17:22;;;;;;;2.33;2.13;;;18.40;58.90;;;;;;5062599;28;20217;-69
2022/06/11 00:19:47;;;;;;;2.67;2.20;;;18.40;58.60;;;;;;5070040;28;20179;-69
2022/06/11 00:22:15;;;;;;;3.67;2.00;;;18.50;58.60;;;;;;5037751;28;20213;-69
2022/06/11 00:24:41;;;;;;;4.50;2.07;;;18.50;59.00;;;;;;5064607;28;20203;-69
2022/06/11 00:27:09;;;;;;;3.43;2.43;;;18.50;59.60;;;;;;5052089;28;20264;-69
2022/06/11 00:29:36;;;;;;;2.57;2.27;;;18.50;58.80;;;;;;5082988;28;20193;-69
2022/06/11 00:32:03;;;;;;;4.23;2.30;;;18.50;58.60;;;;;;5069723;28;20185;-69
2022/06/11 00:34:29;;;;;;;3.60;2.37;;;18.50;58.30;;;;;;5050375;28;20217;-69
2022/06/11 00:36:55;;;;;;;4.67;2.57;;;18.60;58.30;;;;;;5046157;28;20190;-69
2022/06/11 00:39:24;;;;;;;3.10;2.43;;;18.50;58.20;;;;;;5064163;28;20232;-69
2022/06/11 00:42:08;;;;;;;2.27;2.07;;;18.50;59.10;;;;;;5053939;28;20253;-69
2022/06/11 00:44:34;;;;;;;3.60;2.33;;;18.50;59.10;;;;;;5070996;28;20201;-69
2022/06/11 00:47:11;;;;;;;2.40;2.20;;;18.50;59.20;;;;;;5070455;28;20272;-69
2022/06/11 00:49:45;;;;;;;5.33;2.50;;;18.50;58.70;;;;;;5059878;28;20225;-68
2022/06/11 00:52:31;;;;;;;2.77;2.47;;;18.50;58.20;;;;;;5053255;28;20183;-68
2022/06/11 00:55:14;;;;;;;2.87;2.40;;;18.50;58.70;;;;;;5056974;28;20234;-68
2022/06/11 00:57:44;;;;;;;3.00;2.40;;;18.50;58.10;;;;;;5089778;28;20181;-68
2022/06/11 01:00:45;;;;;;;2.83;2.30;;;18.60;57.60;;;;;;5071440;28;20184;-69
2022/06/11 01:03:15;;;;;;;2.97;2.27;;;18.60;58.00;;;;;;5048220;28;20219;-69
2022/06/11 01:05:45;;;;;;;4.60;2.67;;;18.50;57.80;;;;;;5052618;28;20182;-68
2022/06/11 01:08:22;;;;;;;2.40;2.20;;;18.50;57.70;;;;;;5066058;28;20184;-68
2022/06/11 01:11:12;;;;;;;3.13;2.50;;;18.50;57.80;;;;;;5058508;28;20182;-68
2022/06/11 01:13:49;;;;;;;3.23;2.93;;;18.50;57.90;;;;;;5060549;28;20190;-69
2022/06/11 01:16:29;;;;;;;2.60;2.40;;;18.60;57.70;;;;;;5054690;28;20192;-69
2022/06/11 01:19:03;;;;;;;4.10;2.43;;;18.60;58.30;;;;;;5070259;28;20206;-70
2022/06/11 01:21:44;;;;;;;3.13;2.40;;;18.50;58.20;;;;;;5054092;28;20262;-69
2022/06/11 01:24:34;;;;;;;2.73;2.23;;;18.50;58.40;;;;;;5053709;28;20221;-70
2022/06/11 01:27:01;;;;;;;2.87;2.67;;;18.50;58.60;;;;;;5057266;28;20183;-70
2022/06/11 01:29:40;;;;;;;5.53;2.53;;;18.50;58.20;;;;;;5054869;28;20239;-69
2022/06/11 01:32:11;;;;;;;2.53;2.13;;;18.50;58.40;;;;;;5057716;28;20190;-69
2022/06/11 01:35:37;;;;;;;2.43;2.23;;;18.50;58.40;;;;;;5061159;28;20186;-69
2022/06/11 01:38:10;;;;;;;2.90;2.60;;;18.50;58.30;;;;;;5040104;28;20217;-69
2022/06/11 01:40:39;;;;;;;2.87;2.33;;;18.50;58.20;;;;;;5069670;28;20186;-68
2022/06/11 01:43:19;;;;;;;2.73;2.53;;;18.50;58.90;;;;;;5052679;28;20194;-71
2022/06/11 01:45:47;;;;;;;3.10;2.30;;;18.50;58.70;;;;;;5056379;28;20296;-71
2022/06/11 01:48:25;;;;;;;2.77;2.57;;;18.40;58.30;;;;;;5049263;28;20190;-71
2022/06/11 01:51:15;;;;;;;3.00;2.67;;;18.50;58.70;;;;;;5053988;28;20186;-71
2022/06/11 01:53:55;;;;;;;5.17;2.30;;;18.50;58.50;;;;;;5066401;28;20182;-71
2022/06/11 01:56:32;;;;;;;2.30;2.10;;;18.50;58.40;;;;;;5051753;28;20263;-71
2022/06/11 01:59:25;;;;;;;2.90;2.70;;;18.50;58.30;;;;;;5050063;28;20242;-71
2022/06/11 02:01:57;;;;;;;3.20;2.30;;;18.50;58.10;;;;;;5070609;28;20182;-71
2022/06/11 02:04:47;;;;;;;2.67;2.47;;;18.50;58.40;;;;;;5060183;28;20291;-71
2022/06/11 02:07:27;;;;;;;2.70;2.50;;;18.50;58.10;;;;;;5063439;28;20206;-71
2022/06/11 02:10:09;;;;;;;4.20;2.40;;;18.50;58.80;;;;;;5057305;28;20243;-70
2022/06/11 02:12:38;;;;;;;3.87;2.30;;;18.40;58.30;;;;;;5055968;28;20190;-70
2022/06/11 02:15:13;;;;;;;3.30;2.00;;;18.40;59.20;;;;;;5055158;28;20178;-70
2022/06/11 02:17:43;;;;;;;2.50;2.30;;;18.40;59.70;;;;;;5061406;28;20174;-70
2022/06/11 02:20:17;;;;;;;3.10;2.10;;;18.30;60.60;;;;;;5071053;28;20249;-70
2022/06/11 02:23:04;;;;;;;3.43;2.23;;;18.30;60.80;;;;;;5054117;28;20215;-70
2022/06/11 02:25:50;;;;;;;3.70;2.10;;;18.30;60.00;;;;;;5059043;28;20276;-70
2022/06/11 02:28:24;;;;;;;2.60;2.40;;;18.30;59.70;;;;;;5062795;28;20206;-69
2022/06/11 02:30:52;;;;;;;2.50;2.30;;;18.20;59.20;;;;;;5072394;28;20240;-70
2022/06/11 02:33:20;;;;;;;2.70;2.50;;;18.30;59.40;;;;;;5070055;28;20190;-71
2022/06/11 02:35:49;;;;;;;2.40;2.20;;;18.20;59.50;;;;;;5068465;28;20245;-69
2022/06/11 02:38:19;;;;;;;3.30;2.10;;;18.20;60.30;;;;;;5076528;28;20212;-69
2022/06/11 02:40:57;;;;;;;3.07;2.40;;;18.10;60.00;;;;;;5070617;28;20186;-69
2022/06/11 02:43:22;;;;;;;2.50;2.30;;;18.10;59.50;;;;;;5066738;28;20226;-69
2022/06/11 02:45:48;;;;;;;3.23;2.30;;;18.10;59.70;;;;;;5059507;28;20206;-69
2022/06/11 02:48:14;;;;;;;4.07;2.27;;;18.10;59.80;;;;;;5072500;28;20205;-68
2022/06/11 02:50:42;;;;;;;2.80;2.10;;;18.10;60.00;;;;;;5071427;28;20212;-67
2022/06/11 02:53:08;;;;;;;2.20;2.00;;;18.10;60.00;;;;;;5067187;28;20189;-69
2022/06/11 02:55:35;;;;;;;3.70;1.93;;;18.10;58.40;;;;;;5063513;28;20269;-69
2022/06/11 02:58:01;;;;;;;3.67;2.20;;;18.20;58.60;;;;;;5064015;28;20187;-69
2022/06/11 03:00:32;;;;;;;2.77;1.93;;;18.20;59.10;;;;;;5075892;28;20186;-68
2022/06/11 03:02:58;;;;;;;3.77;2.00;;;18.20;58.70;;;;;;5060353;28;20286;-68
2022/06/11 03:05:31;;;;;;;2.80;2.13;;;18.20;58.70;;;;;;5061837;28;20178;-69
2022/06/11 03:07:58;;;;;;;2.50;2.30;;;18.20;58.60;;;;;;5061179;28;20177;-69
2022/06/11 03:10:25;;;;;;;2.67;2.40;;;18.20;60.70;;;;;;5074526;28;20236;-69
2022/06/11 03:12:51;;;;;;;2.50;2.30;;;18.20;61.60;;;;;;5057536;28;20283;-67
2022/06/11 03:15:19;;;;;;;2.90;2.30;;;18.00;63.20;;;;;;5068029;28;20187;-67
2022/06/11 03:17:48;;;;;;;3.57;2.30;;;17.90;63.00;;;;;;5066487;28;20253;-68
2022/06/11 03:20:17;;;;;;;2.60;2.40;;;17.90;61.60;;;;;;5064250;28;20182;-67
2022/06/11 03:22:43;;;;;;;2.60;2.40;;;17.90;63.10;;;;;;5057548;28;20197;-68
2022/06/11 03:25:09;;;;;;;4.10;2.37;;;17.90;62.20;;;;;;5064446;28;20186;-68
2022/06/11 03:27:35;;;;;;;3.97;2.50;;;17.80;62.10;;;;;;5050697;28;20193;-68
2022/06/11 03:30:02;;;;;;;2.60;2.40;;;17.80;62.30;;;;;;5061318;28;20182;-68
2022/06/11 03:32:28;;;;;;;2.47;2.10;;;17.80;61.80;;;;;;5047622;28;20185;-68
2022/06/11 03:34:54;;;;;;;2.87;2.40;;;17.80;61.80;;;;;;5048869;28;20189;-68
2022/06/11 03:37:20;;;;;;;3.07;2.50;;;17.80;61.00;;;;;;5057781;28;20213;-68
2022/06/11 03:39:46;;;;;;;2.40;2.20;;;17.80;60.90;;;;;;5065609;28;20186;-68
2022/06/11 03:42:13;;;;;;;2.70;2.40;;;17.80;60.60;;;;;;5045113;28;20236;-68
2022/06/11 03:44:39;;;;;;;3.20;2.30;;;17.80;60.60;;;;;;5063102;28;20210;-68
2022/06/11 03:47:05;;;;;;;5.73;2.70;;;17.80;60.30;;;;;;5056967;28;20193;-68
2022/06/11 03:49:31;;;;;;;3.10;2.60;;;17.90;60.30;;;;;;5054784;28;20244;-68
2022/06/11 03:51:56;;;;;;;2.23;2.10;;;17.90;60.30;;;;;;5073101;28;20202;-68
2022/06/11 03:54:22;;;;;;;4.40;2.63;;;17.90;60.10;;;;;;5063937;28;20186;-68
2022/06/11 03:56:50;;;;;;;2.43;2.23;;;17.90;60.40;;;;;;5042592;28;20194;-68
2022/06/11 03:59:16;;;;;;;2.73;2.50;;;17.90;60.70;;;;;;5057237;28;20186;-68
2022/06/11 04:01:44;;;;;;;3.70;2.50;;;17.90;60.60;;;;;;5060187;28;20191;-69
2022/06/11 04:04:13;;;;;;;2.23;2.03;;;17.80;59.90;;;;;;5058615;28;20263;-68
2022/06/11 04:06:49;;;;;;;2.50;2.30;;;17.90;59.90;;;;;;5066633;28;20190;-68
2022/06/11 04:09:26;;;;;;;2.40;2.20;;;17.90;60.40;;;;;;5063545;28;20289;-68
2022/06/11 04:11:53;;;;;;;2.57;2.30;;;17.90;60.40;;;;;;5059008;28;20313;-68
2022/06/11 04:14:18;;;;;;;2.50;2.30;;;17.90;60.60;;;;;;5058571;28;20185;-69
2022/06/11 04:16:51;;;;;;;2.40;2.20;;;17.90;60.80;;;;;;5046467;28;20190;-68
2022/06/11 04:19:26;;;;;;;2.50;2.30;;;17.90;61.30;;;;;;5065842;28;20196;-68
2022/06/11 04:21:54;;;;;;;2.93;2.47;;;17.90;60.70;;;;;;5063398;28;20188;-68
2022/06/11 04:24:21;;;;;;;2.40;2.20;;;17.80;60.60;;;;;;5051254;28;20206;-68
2022/06/11 04:26:50;;;;;;;4.13;2.70;;;17.80;61.00;;;;;;5056531;28;20193;-69
2022/06/11 04:29:18;;;;;;;2.60;2.40;;;17.80;61.40;;;;;;5069060;28;20179;-68
2022/06/11 04:31:47;;;;;;;3.60;2.53;;;17.80;61.40;;;;;;5070223;28;20273;-68
2022/06/11 04:34:13;;;;;;;4.37;2.80;;;17.80;61.50;;;;;;5097632;28;20186;-68
2022/06/11 04:36:40;;;;;;;3.10;2.80;;;17.80;61.80;;;;;;5051858;28;20189;-68
2022/06/11 04:39:08;;;;;;;3.23;2.63;;;17.80;61.30;;;;;;5069981;28;20198;-68
2022/06/11 04:41:34;;;;;;;3.23;3.03;;;17.80;61.30;;;;;;5065283;28;20269;-68
2022/06/11 04:44:01;;;;;;;2.63;2.43;;;17.80;61.60;;;;;;5049889;28;20216;-68
2022/06/11 04:46:29;;;;;;;3.80;2.23;;;17.80;61.40;;;;;;5052828;28;20192;-68
2022/06/11 04:48:55;;;;;;;5.00;2.77;;;17.80;61.70;;;;;;5106905;28;20257;-68
2022/06/11 04:51:22;;;;;;;3.37;2.57;;;17.80;61.50;;;;;;5084264;28;20186;-68
2022/06/11 04:53:48;;;;;;;2.80;2.60;;;17.80;62.20;;;;;;5050290;28;20189;-68
2022/06/11 04:56:18;;;;;;;4.17;2.63;;;17.90;61.20;;;;;;5070344;28;20202;-68
2022/06/11 04:58:44;;;;;;;2.80;2.53;;;17.90;61.30;;;;;;5066141;28;20186;-68
2022/06/11 05:01:10;;;;;;;3.43;2.50;;;17.90;62.00;;;;;;5052645;28;20183;-68
2022/06/11 05:03:36;;;;;;;3.47;2.73;;;17.90;62.80;;;;;;5061219;28;20217;-67
2022/06/11 05:06:02;;;;;;;3.50;2.60;;;17.90;62.50;;;;;;5049069;28;20186;-66
2022/06/11 05:08:28;;;;;;;3.00;2.67;;;17.80;63.30;;;;;;5066752;28;20275;-68
2022/06/11 05:10:53;;;;;;;4.03;2.43;;;17.80;62.60;;;;;;5070168;28;20237;-67
2022/06/11 05:13:19;;;;;;;4.20;2.93;;;17.80;62.40;;;;;;5059569;28;20186;-66
2022/06/11 05:15:49;;;;;;;4.17;2.70;;;17.80;62.60;;;;;;5044335;28;20194;-68
2022/06/11 05:18:16;;;;;;;5.13;2.73;;;17.90;62.30;;;;;;5060819;28;20190;-68
2022/06/11 05:20:43;;;;;;;4.13;3.30;;;17.90;62.90;;;;;;5041974;28;20193;-68
2022/06/11 05:23:10;;;;;;;2.97;2.63;;;17.90;62.60;;;;;;5060471;28;20210;-68
2022/06/11 05:25:38;;;;;;;3.13;2.83;;;18.00;62.80;;;;;;5040197;28;20194;-68
2022/06/11 05:28:06;;;;;;;5.83;2.83;;;18.00;62.30;;;;;;5059265;28;20181;-68
2022/06/11 05:30:33;;;;;;;3.27;2.70;;;18.00;63.20;;;;;;5060506;28;20182;-68
2022/06/11 05:33:00;;;;;;;4.50;2.80;;;18.00;63.40;;;;;;5053328;28;20186;-68
2022/06/11 05:35:30;;;;;;;3.00;2.70;;;18.10;62.60;;;;;;5060684;28;20185;-68
2022/06/11 05:37:59;;;;;;;6.33;2.80;;;18.10;62.20;;;;;;5064332;28;20269;-68
2022/06/11 05:40:27;;;;;;;2.67;2.47;;;18.20;63.20;;;;;;5064339;28;20319;-68
2022/06/11 05:42:53;;;;;;;3.77;2.87;;;18.20;63.10;;;;;;5052866;28;20213;-67
2022/06/11 05:45:31;;;;;;;3.20;2.70;;;18.20;62.50;;;;;;5052070;28;20186;-68
2022/06/11 05:47:58;;;;;;;4.67;2.90;;;18.30;62.60;;;;;;5066090;28;20211;-67
2022/06/11 05:50:28;;;;;;;2.43;2.23;;;18.30;63.40;;;;;;5068415;28;20190;-67
2022/06/11 05:52:55;;;;;;;3.70;2.70;;;18.30;62.90;;;;;;5065365;28;20190;-67
2022/06/11 05:55:26;;;;;;;2.40;2.20;;;18.30;64.80;;;;;;5076426;28;20236;-68
2022/06/11 05:57:54;;;;;;;4.40;2.77;;;18.30;61.70;;;;;;5072175;28;20793;-68
2022/06/11 06:00:23;;;;;;;2.70;2.50;;;18.30;61.80;;;;;;5038203;28;20186;-67
2022/06/11 06:02:49;;;;;;;3.60;2.67;;;18.40;62.50;;;;;;5073560;28;20246;-67
2022/06/11 06:05:20;;;;;;;3.17;2.87;;;18.40;61.70;;;;;;5066269;28;20218;-67
2022/06/11 06:07:45;;;;;;;2.57;2.37;;;18.50;61.40;;;;;;5064690;28;20178;-67
2022/06/11 06:10:12;;;;;;;4.10;2.60;;;18.60;61.20;;;;;;5071259;28;20183;-68
2022/06/11 06:12:38;;;;;;;4.70;2.90;;;18.60;60.70;;;;;;5081362;28;20184;-67
2022/06/11 06:15:11;;;;;;;3.80;2.70;;;18.60;63.40;;;;;;5062541;28;20194;-68
2022/06/11 06:17:38;;;;;;;4.27;2.80;;;18.60;64.10;;;;;;5061188;28;20179;-68
2022/06/11 06:20:07;;;;;;;6.20;2.70;;;18.60;64.60;;;;;;5064030;28;20183;-67
2022/06/11 06:22:33;;;;;;;4.57;2.60;;;18.60;60.70;;;;;;5067811;28;20267;-68
2022/06/11 06:25:00;;;;;;;2.90;2.50;;;18.80;60.00;;;;;;5065752;28;20186;-67
2022/06/11 06:27:25;;;;;;;5.60;1.87;;;18.80;60.50;;;;;;5051958;28;20179;-67
2022/06/11 06:29:52;;;;;;;2.60;2.40;;;18.80;60.30;;;;;;5073783;28;20182;-66
2022/06/11 06:32:18;;;;;;;2.20;2.00;;;19.10;59.20;;;;;;5070186;28;20213;-66
2022/06/11 06:34:44;;;;;;;2.10;1.93;;;19.20;56.40;;;;;;5066781;28;20202;-66
2022/06/11 06:37:09;;;;;;;4.90;2.00;;;19.20;55.70;;;;;;5056279;28;20191;-66
2022/06/11 06:39:35;;;;;;;2.13;1.90;;;19.20;56.40;;;;;;5080625;28;20289;-67
2022/06/11 06:42:01;;;;;;;3.07;1.80;;;19.20;55.60;;;;;;5084875;28;20251;-67
2022/06/11 06:44:27;;;;;;;2.00;1.70;;;19.20;55.10;;;;;;5058930;28;20236;-66
2022/06/11 06:46:53;;;;;;;1.40;1.30;;;19.30;55.60;;;;;;5070893;28;20214;-66
2022/06/11 06:49:18;;;;;;;2.20;1.90;;;19.30;54.50;;;;;;5070689;28;20238;-67
2022/06/11 06:51:44;;;;;;;3.23;1.70;;;19.30;56.10;;;;;;5055380;28;20194;-66
2022/06/11 06:54:10;;;;;;;5.03;2.17;;;19.40;55.20;;;;;;5057703;28;20243;-66
2022/06/11 06:56:35;;;;;;;2.67;1.50;;;19.30;56.00;;;;;;5055785;28;20258;-67
2022/06/11 06:59:03;;;;;;;2.00;1.60;;;19.40;54.70;;;;;;5055821;28;20197;-67
2022/06/11 07:01:29;;;;;;;3.37;2.03;;;19.50;54.30;;;;;;5068944;28;20179;-66
2022/06/11 07:03:55;;;;;;;1.73;1.40;;;19.50;54.20;;;;;;5050939;28;20202;-65
2022/06/11 07:06:21;;;;;;;4.80;2.00;;;19.60;53.40;;;;;;5055243;28;20238;-65
2022/06/11 07:08:52;;;;;;;1.80;1.50;;;19.70;54.20;;;;;;5049333;28;20236;-66
2022/06/11 07:11:19;;;;;;;2.00;1.80;;;19.70;54.40;;;;;;5068776;28;20174;-65
2022/06/11 07:13:44;;;;;;;2.03;1.80;;;19.70;54.80;;;;;;5048233;28;20190;-65
2022/06/11 07:16:12;;;;;;;2.10;1.70;;;19.80;53.40;;;;;;5088185;28;20189;-64
2022/06/11 07:18:42;;;;;;;2.67;1.40;;;19.80;53.70;;;;;;5079477;28;20181;-64
2022/06/11 07:21:12;;;;;;;1.50;1.40;;;19.80;54.50;;;;;;5074353;28;20268;-63
2022/06/11 07:23:43;;;;;;;2.30;1.70;;;19.90;53.70;;;;;;5063076;28;20206;-63
2022/06/11 07:26:14;;;;;;;4.10;1.97;;;19.90;53.80;;;;;;5068562;28;20235;-63
2022/06/11 07:28:50;;;;;;;1.57;1.40;;;20.00;53.70;;;;;;5060920;28;20187;-63
2022/06/11 07:31:15;;;;;;;2.30;1.43;;;20.00;52.70;;;;;;5067240;28;20177;-63
2022/06/11 07:33:43;;;;;;;1.63;1.50;;;20.10;51.00;;;;;;5058623;28;20193;-63
2022/06/11 07:36:10;;;;;;;2.27;1.23;;;20.20;52.40;;;;;;5053441;28;20182;-63
2022/06/11 07:38:35;;;;;;;2.17;1.33;;;20.20;52.90;;;;;;5056780;28;20190;-63
2022/06/11 07:41:02;;;;;;;1.90;1.50;;;20.20;52.40;;;;;;5073948;28;20181;-63
2022/06/11 07:43:28;;;;;;;1.60;1.50;;;20.20;53.00;;;;;;5046725;28;20205;-63
2022/06/11 07:45:54;;;;;;;2.30;1.53;;;20.30;52.60;;;;;;5045581;28;20185;-63
2022/06/11 07:48:20;;;;;;;1.80;1.70;;;20.30;52.30;;;;;;5046978;28;20250;-63
2022/06/11 07:50:50;;;;;;;1.70;1.47;;;20.40;52.30;;;;;;5050016;28;20265;-63
2022/06/11 07:53:17;;;;;;;1.70;1.60;;;20.40;51.50;;;;;;5059038;28;20273;-65
2022/06/11 07:55:45;;;;;;;1.67;1.57;;;20.50;51.30;;;;;;5045274;28;20209;-65
2022/06/11 07:58:12;;;;;;;2.10;1.57;;;20.50;50.50;;;;;;5057638;28;20190;-65
2022/06/11 08:00:45;;;;;;;2.07;1.50;;;20.50;51.40;;;;;;5086662;28;20243;-64
2022/06/11 08:03:11;;;;;;;1.50;1.40;;;20.60;51.20;;;;;;5069960;28;20218;-65
2022/06/11 08:05:37;;;;;;;1.63;1.53;;;20.60;50.60;;;;;;5047797;28;20178;-64
2022/06/11 08:08:05;;;;;;;2.43;1.47;;;20.50;50.70;;;;;;5049931;28;20191;-65
2022/06/11 08:10:31;;;;;;;1.70;1.60;;;20.50;50.50;;;;;;5060074;28;20178;-65
2022/06/11 08:12:57;;;;;;;1.77;1.50;;;20.60;50.80;;;;;;5052643;28;20193;-65
2022/06/11 08:15:23;;;;;;;1.47;1.37;;;20.70;50.80;;;;;;5071175;28;20265;-65
2022/06/11 08:17:48;;;;;;;1.70;1.60;;;20.70;51.50;;;;;;5071239;28;20190;-66
2022/06/11 08:20:18;;;;;;;2.07;1.77;;;20.80;52.30;;;;;;5052002;28;20178;-66
2022/06/11 08:22:44;;;;;;;3.90;1.67;;;20.90;50.20;;;;;;5057149;28;20252;-65
2022/06/11 08:25:10;;;;;;;1.73;1.50;;;20.90;48.80;;;;;;5054261;28;20230;-65
2022/06/11 08:27:35;;;;;;;3.97;1.77;;;20.90;48.70;;;;;;5071176;28;20195;-66
2022/06/11 08:30:01;;;;;;;2.90;1.70;;;20.90;48.90;;;;;;5054374;28;20193;-66
2022/06/11 08:32:27;;;;;;;3.00;1.63;;;20.90;48.00;;;;;;5052891;28;20200;-66
2022/06/11 08:34:52;;;;;;;2.03;1.60;;;21.00;48.00;;;;;;5066846;28;20199;-65
2022/06/11 08:37:18;;;;;;;1.70;1.60;;;21.00;48.50;;;;;;5069329;28;20198;-66
2022/06/11 08:39:44;;;;;;;1.93;1.70;;;21.10;49.60;;;;;;5071077;28;20198;-65
2022/06/11 08:42:36;;;;;;;1.40;1.30;;;21.20;48.60;;;;;;5065585;28;20194;-65
2022/06/11 08:45:35;;;;;;;1.63;1.53;;;21.30;49.80;;;;;;5086949;28;20263;-65
2022/06/11 08:48:11;;;;;;;3.23;1.50;;;21.30;49.00;;;;;;5063596;28;20209;-65
2022/06/11 08:50:43;;;;;;;2.70;1.90;;;21.40;49.50;;;;;;5063496;28;20183;-65
2022/06/11 08:53:09;;;;;;;2.03;1.63;;;21.60;47.80;;;;;;5059311;28;20284;-66
2022/06/11 08:55:37;;;;;;;2.97;1.50;;;21.50;49.40;;;;;;5043014;28;20289;-65
2022/06/11 08:58:13;;;;;;;1.83;1.70;;;21.50;48.00;;;;;;5045145;28;20221;-65
2022/06/11 09:00:55;;;;;;;1.90;1.80;;;21.40;48.30;;;;;;5058309;28;20266;-65
2022/06/11 09:03:44;;;;;;;2.80;2.20;;;21.40;47.80;;;;;;5068786;28;20213;-65
2022/06/11 09:06:19;;;;;;;3.97;2.13;;;21.30;49.10;;;;;;5062466;28;20189;-65
2022/06/11 09:08:57;;;;;;;1.90;1.80;;;21.30;48.50;;;;;;5067363;28;20184;-65
2022/06/11 09:11:40;;;;;;;2.00;1.70;;;21.50;48.60;;;;;;5062080;28;20429;-65
2022/06/11 09:14:09;;;;;;;3.00;2.00;;;21.80;47.60;;;;;;5068071;28;20185;-65
2022/06/11 09:17:15;;;;;;;3.47;1.60;;;21.80;50.40;;;;;;5068294;28;20246;-65
2022/06/11 09:20:04;;;;;;;2.87;1.77;;;22.00;47.30;;;;;;5060355;28;20245;-65
2022/06/11 09:22:40;;;;;;;2.90;1.80;;;22.10;45.90;;;;;;5067216;28;20190;-66
2022/06/11 09:25:18;;;;;;;2.17;1.97;;;22.20;47.50;;;;;;5065075;28;20212;-65
2022/06/11 09:28:01;;;;;;;2.43;1.60;;;22.30;50.30;;;;;;5066492;28;20277;-65
2022/06/11 09:30:36;;;;;;;2.53;1.80;;;22.40;45.10;;;;;;5054910;28;20268;-65
2022/06/11 09:33:20;;;;;;;1.87;1.67;;;22.50;45.70;;;;;;5072431;28;20242;-64
2022/06/11 09:35:51;;;;;;;2.20;1.40;;;22.50;46.40;;;;;;5067778;28;20186;-67
2022/06/11 09:39:00;;;;;;;2.50;1.73;;;22.40;46.70;;;;;;5059173;28;20200;-66
2022/06/11 09:41:30;;;;;;;2.40;1.80;;;22.60;47.60;;;;;;5058944;28;20194;-66
2022/06/11 09:44:25;;;;;;;3.17;1.80;;;22.70;46.70;;;;;;5059359;28;20299;-67
2022/06/11 09:47:01;;;;;;;1.87;1.77;;;22.80;44.70;;;;;;5050027;28;20200;-66
2022/06/11 09:49:38;;;;;;;2.80;2.00;;;22.80;44.50;;;;;;5071222;28;20244;-64
2022/06/11 09:52:20;;;;;;;1.97;1.63;;;22.80;45.00;;;;;;5067722;28;20185;-64
2022/06/11 09:55:08;;;;;;;1.87;1.63;;;22.90;46.30;;;;;;5063947;28;20189;-63
2022/06/11 09:57:56;;;;;;;2.47;1.53;;;23.00;46.50;;;;;;5065584;28;20221;-63
2022/06/11 10:00:36;;;;;;;2.43;1.90;;;23.20;44.50;;;;;;5063872;28;20244;-62
2022/06/11 10:03:30;;;;;;;1.70;1.60;;;23.00;44.90;;;;;;5066636;28;20185;-63
2022/06/11 10:06:05;;;;;;;1.93;1.40;;;22.90;44.20;;;;;;5068605;28;20262;-62
2022/06/11 10:08:47;;;;;;;1.97;1.67;;;22.90;45.50;;;;;;5066138;28;20186;-63
2022/06/11 10:11:22;;;;;;;1.90;1.80;;;23.00;44.80;;;;;;5066399;28;20190;-63
2022/06/11 10:14:28;;;;;;;1.87;1.73;;;23.20;44.00;;;;;;5064851;28;20189;-63
2022/06/11 10:17:27;;;;;;;2.47;1.70;;;23.30;44.50;;;;;;5063569;28;20189;-63
2022/06/11 10:20:11;;;;;;;3.73;1.67;;;23.30;45.90;;;;;;5055130;28;20269;-62
2022/06/11 10:22:46;;;;;;;3.33;1.87;;;23.40;43.40;;;;;;5069568;28;20186;-63
2022/06/11 10:25:11;;;;;;;1.70;1.60;;;23.50;45.30;;;;;;5095097;28;20208;-63
2022/06/11 10:27:46;;;;;;;1.90;1.80;;;23.60;43.90;;;;;;5070362;28;20198;-63
2022/06/11 10:30:39;;;;;;;1.63;1.53;;;23.70;43.10;;;;;;5058553;28;20273;-63
2022/06/11 10:33:29;;;;;;;2.97;1.70;;;23.70;43.30;;;;;;5064501;28;20189;-63
2022/06/11 10:36:10;;;;;;;1.90;1.33;;;23.50;43.00;;;;;;5075325;28;20190;-62
2022/06/11 10:38:36;;;;;;;2.20;1.90;;;23.60;43.00;;;;;;5075219;28;20207;-62
2022/06/11 10:41:05;;;;;;;1.80;1.70;;;23.80;42.70;;;;;;5074095;28;20185;-63
2022/06/11 10:43:35;;;;;;;2.00;1.73;;;24.00;40.80;;;;;;5062123;28;20206;-62
2022/06/11 10:46:01;;;;;;;1.77;1.67;;;24.00;44.60;;;;;;5067871;28;20221;-62
2022/06/11 10:48:33;;;;;;;1.67;1.57;;;24.00;43.70;;;;;;5084006;28;20232;-63
2022/06/11 10:51:01;;;;;;;1.90;1.80;;;24.00;42.60;;;;;;5062166;28;20185;-62
2022/06/11 10:53:42;;;;;;;2.43;1.60;;;24.00;42.10;;;;;;5070955;28;20187;-62
2022/06/11 10:56:11;;;;;;;1.67;1.43;;;24.00;42.00;;;;;;5068265;28;20190;-62
2022/06/11 10:58:39;;;;;;;3.07;1.70;;;24.00;44.20;;;;;;5066043;28;20216;-63
2022/06/11 11:01:26;;;;;;;3.27;1.60;;;24.10;48.20;;;;;;5073863;28;20193;-63
2022/06/11 11:04:24;;;;;;;1.70;1.60;;;24.20;43.00;;;;;;5073128;28;20201;-60
2022/06/11 11:07:14;;;;;;;1.73;1.63;;;24.20;42.30;;;;;;5067079;28;20265;-60
2022/06/11 11:09:40;;;;;;;1.53;1.40;;;24.20;42.10;;;;;;5071178;28;20273;-62
2022/06/11 11:12:15;;;;;;;2.03;1.70;;;24.20;42.50;;;;;;5066792;28;20190;-64
2022/06/11 11:14:44;;;;;;;2.00;1.80;;;24.20;40.40;;;;;;5088155;28;20189;-62
2022/06/11 11:17:24;;;;;;;2.67;1.70;;;24.20;41.70;;;;;;5064980;28;20186;-62
2022/06/11 11:22:41;;;;;;;2.70;1.70;;;24.20;42.30;;;;;;5066935;28;20184;-62
2022/06/11 11:25:19;;;;;;;1.73;1.60;;;24.20;42.30;;;;;;5047437;28;20210;-62
2022/06/11 11:27:47;;;;;;;2.03;1.73;;;24.20;43.20;;;;;;5070123;28;20181;-62
2022/06/11 11:30:25;;;;;;;2.77;1.90;;;24.40;45.50;;;;;;5068744;28;20178;-63
2022/06/11 11:32:50;;;;;;;2.23;1.90;;;24.60;46.00;;;;;;5056785;28;20173;-63
2022/06/11 11:35:19;;;;;;;2.80;1.73;;;24.70;46.30;;;;;;5074418;28;20189;-62
2022/06/11 11:37:55;;;;;;;2.37;1.50;;;24.90;43.30;;;;;;5073610;28;20238;-63
2022/06/11 11:40:34;;;;;;;2.50;1.87;;;25.10;45.40;;;;;;5059213;28;20186;-62
2022/06/11 11:43:08;;;;;;;1.97;1.83;;;25.30;44.20;;;;;;5070380;28;20185;-63
2022/06/11 11:45:44;;;;;;;1.83;1.73;;;25.40;45.00;;;;;;5055451;28;20181;-63
2022/06/11 11:48:30;;;;;;;1.87;1.63;;;25.70;47.50;;;;;;5069523;28;20194;-63
2022/06/11 11:51:06;;;;;;;4.67;2.00;;;25.90;42.90;;;;;;5062147;28;20217;-63
2022/06/11 11:53:42;;;;;;;1.80;1.70;;;26.00;44.80;;;;;;5072065;28;20198;-63
2022/06/11 11:56:27;;;;;;;4.17;2.20;;;26.10;40.90;;;;;;5087828;28;20194;-63
2022/06/11 11:58:55;;;;;;;1.77;1.67;;;26.20;39.70;;;;;;5066486;28;20220;-63
2022/06/11 12:01:23;;;;;;;2.20;1.70;;;26.60;41.40;;;;;;5058389;28;20190;-62
2022/06/11 12:03:59;;;;;;;2.00;1.73;;;27.10;37.10;;;;;;5059874;28;20222;-62
2022/06/11 12:06:50;;;;;;;2.67;1.63;;;27.20;37.20;;;;;;5070260;28;20276;-63
2022/06/11 12:09:25;;;;;;;3.23;1.57;;;28.10;36.60;;;;;;5059103;28;20186;-62
2022/06/11 12:12:16;;;;;;;2.30;1.70;;;28.90;37.70;;;;;;5069879;28;20177;-62
2022/06/11 12:14:52;;;;;;;1.67;1.47;;;29.70;37.80;;;;;;5062243;28;20190;-62
2022/06/11 12:17:18;;;;;;;5.13;1.50;;;29.70;36.70;;;;;;5065047;28;20192;-62
2022/06/11 12:19:48;;;;;;;1.93;1.70;;;29.20;34.80;;;;;;5063146;28;20186;-62
2022/06/11 12:22:36;;;;;;;1.70;1.60;;;28.70;34.00;;;;;;5056535;28;20186;-62
2022/06/11 12:25:04;;;;;;;1.87;1.70;;;28.40;34.30;;;;;;5057978;28;20202;-62
2022/06/11 12:27:41;;;;;;;2.13;1.70;;;28.90;34.60;;;;;;5069460;28;20182;-62
2022/06/11 12:30:17;;;;;;;1.73;1.60;;;30.70;32.30;;;;;;5063553;28;20224;-62
2022/06/11 12:32:43;;;;;;;1.47;1.17;;;32.30;32.20;;;;;;5071108;28;20216;-62
2022/06/11 12:35:52;;;;;;;1.60;1.20;;;33.70;28.90;;;;;;5065139;28;20222;-63
2022/06/11 12:38:29;;;;;;;1.80;1.40;;;34.80;27.00;;;;;;5058635;28;20186;-62
2022/06/11 12:41:04;;;;;;;2.90;1.30;;;35.70;26.60;;;;;;5067445;28;20224;-63
2022/06/11 12:43:44;;;;;;;2.05;1.42;;;35.90;25.70;;;;;;5067896;28;20296;-62
2022/06/11 12:46:31;;;;;;;1.65;1.40;;;36.40;24.30;;;;;;5071445;28;20220;-63
2022/06/11 12:49:32;;;;;;;3.90;1.50;;;35.40;26.20;;;;;;5070727;28;20312;-62
2022/06/11 12:52:24;;;;;;;2.60;1.60;;;34.00;26.90;;;;;;5059975;28;20271;-62
2022/06/11 12:55:02;;;;;;;1.87;1.53;;;33.20;28.90;;;;;;5045766;28;20238;-62
2022/06/11 12:57:42;;;;;;;4.20;1.70;;;32.00;29.90;;;;;;5069901;28;20185;-62
2022/06/11 13:00:20;;;;;;;2.07;1.67;;;31.30;31.20;;;;;;5067462;28;20489;-62
2022/06/11 13:02:57;;;;;;;3.17;1.30;;;30.60;32.00;;;;;;5060870;28;20177;-62
2022/06/11 13:05:28;;;;;;;1.83;1.60;;;30.40;31.10;;;;;;5064500;28;20190;-62
2022/06/11 13:08:03;;;;;;;2.50;1.67;;;30.70;31.90;;;;;;5064347;28;20178;-62
2022/06/11 13:10:46;;;;;;;2.20;2.00;;;31.10;29.70;;;;;;5061695;28;20197;-62
2022/06/11 13:14:05;;;;;;;1.73;1.50;;;31.00;30.50;;;;;;5071508;28;20189;-62
2022/06/11 13:16:33;;;;;;;2.40;1.60;;;30.50;29.60;;;;;;5024159;28;20202;-62
2022/06/11 13:19:17;;;;;;;1.77;1.50;;;30.30;30.20;;;;;;5061438;28;20187;-62